Time;durP1;ratioP1;P1;durP2;ratioP2;P2;SDS_P1;SDS_P2;PMS_P1;PMS_P2;Temp;Humidity;BMP_temperature;BMP_pressure;BME280_temperature;BME280_humidity;BME280_pressure;Samples;Min_cycle;Max_cycle;Signal;HPM_P1;HPM_P2
2023/12/20 00:01:09;;;;;;;;;0.00;0.00;;;;;12.70;100.00;101953.25;5041274;28;45397;-84
2023/12/20 00:03:34;;;;;;;;;0.00;0.00;;;;;12.65;100.00;101963.78;5040423;28;68949;-84
2023/12/20 00:05:59;;;;;;;;;0.00;0.00;;;;;12.62;100.00;101965.59;5057031;28;63652;-84
2023/12/20 00:08:24;;;;;;;;;0.00;0.00;;;;;12.70;100.00;101968.91;5056702;28;63573;-85
2023/12/20 00:10:50;;;;;;;;;0.00;0.00;;;;;12.59;100.00;101971.72;5076368;28;45392;-86
2023/12/20 00:13:15;;;;;;;;;0.00;0.00;;;;;12.63;100.00;101988.19;5076039;28;45335;-84
2023/12/20 00:15:41;;;;;;;;;0.00;0.00;;;;;12.51;100.00;101984.91;5057183;28;60276;-84
2023/12/20 00:18:06;;;;;;;;;0.00;0.00;;;;;12.52;100.00;101975.34;5057198;28;45368;-84
2023/12/20 00:20:32;;;;;;;;;0.00;0.00;;;;;12.30;100.00;102012.25;5057757;28;45361;-83
2023/12/20 00:22:58;;;;;;;;;0.00;0.00;;;;;12.35;100.00;101994.78;5075083;28;53498;-82
2023/12/20 00:25:23;;;;;;;;;0.00;0.00;;;;;12.28;100.00;102016.63;5057566;28;48201;-84
2023/12/20 00:27:49;;;;;;;;;0.00;0.00;;;;;12.26;100.00;102007.09;5075867;28;45287;-84
2023/12/20 00:30:16;;;;;;;;;0.00;0.00;;;;;12.26;100.00;102001.84;5057678;28;45335;-83
2023/12/20 00:32:46;;;;;;;;;0.00;0.00;;;;;12.27;100.00;101999.22;5057180;28;45464;-84
2023/12/20 00:35:13;;;;;;;;;0.00;0.00;;;;;12.16;100.00;102001.16;5058102;28;46636;-85
2023/12/20 00:37:38;;;;;;;;;0.00;0.00;;;;;12.09;100.00;101996.91;5057647;28;45354;-85
2023/12/20 00:40:05;;;;;;;;;0.00;0.00;;;;;12.01;100.00;101991.81;5057737;28;45780;-85
2023/12/20 00:42:30;;;;;;;;;0.00;0.00;;;;;11.94;100.00;101988.44;5058052;28;45402;-85
2023/12/20 00:44:59;;;;;;;;;0.00;0.00;;;;;11.84;100.00;101992.03;5036946;28;47914;-84
2023/12/20 00:47:28;;;;;;;;;0.00;0.00;;;;;11.84;100.00;102004.22;5055542;28;45396;-85
2023/12/20 00:50:03;;;;;;;;;0.00;0.00;;;;;11.71;100.00;102000.91;5042851;28;45378;-85
2023/12/20 00:52:28;;;;;;;;;0.00;0.00;;;;;11.67;100.00;101983.56;5057904;28;45453;-85
2023/12/20 00:54:53;;;;;;;;;0.00;0.00;;;;;11.66;100.00;102007.91;5060238;28;69349;-85
2023/12/20 00:57:21;;;;;;;;;0.00;0.00;;;;;11.61;100.00;102021.03;5043918;28;53338;-84
2023/12/20 00:59:47;;;;;;;;;0.00;0.00;;;;;11.46;100.00;102009.06;5060777;28;45432;-85
2023/12/20 01:02:12;;;;;;;;;0.00;0.00;;;;;11.51;100.00;102003.75;5061694;28;45401;-84
2023/12/20 01:04:37;;;;;;;;;0.00;0.00;;;;;11.35;100.00;102014.38;5060964;28;45601;-84
2023/12/20 01:07:06;;;;;;;;;0.00;0.00;;;;;11.37;100.00;102003.94;5061171;28;45718;-84
2023/12/20 01:09:34;;;;;;;;;0.00;0.00;;;;;11.39;100.00;102010.84;5044070;28;45600;-84
2023/12/20 01:12:00;;;;;;;;;0.00;0.00;;;;;11.34;100.00;102011.78;5060533;28;53515;-85
2023/12/20 01:14:25;;;;;;;;;0.00;0.00;;;;;11.31;100.00;102023.13;5078400;28;59736;-85
2023/12/20 01:16:50;;;;;;;;;0.00;0.00;;;;;11.28;100.00;102023.16;5043660;28;45264;-85
2023/12/20 01:19:16;;;;;;;;;0.00;0.00;;;;;11.21;100.00;102039.75;5078009;28;65638;-85
2023/12/20 01:21:41;;;;;;;;;0.00;0.00;;;;;11.21;100.00;102035.38;5061052;28;45308;-85
2023/12/20 01:24:07;;;;;;;;;0.00;0.00;;;;;11.17;100.00;102038.06;5043158;28;47759;-84
2023/12/20 01:26:32;;;;;;;;;0.00;0.00;;;;;11.12;100.00;102034.63;5078655;28;49167;-85
2023/12/20 01:28:57;;;;;;;;;0.00;0.00;;;;;11.11;100.00;102032.91;5077978;28;62980;-84
2023/12/20 01:31:23;;;;;;;;;0.00;0.00;;;;;11.07;100.00;102023.38;5060777;28;45325;-85
2023/12/20 01:33:48;;;;;;;;;0.00;0.00;;;;;11.00;100.00;102015.63;5043236;28;48423;-84
2023/12/20 01:36:13;;;;;;;;;0.00;0.00;;;;;10.98;100.00;102027.81;5060647;28;45310;-85
2023/12/20 01:38:39;;;;;;;;;0.00;0.00;;;;;10.99;100.00;102026.91;5041904;28;63352;-85
2023/12/20 01:41:04;;;;;;;;;0.00;0.00;;;;;10.92;100.00;102021.78;5079083;28;46695;-85
2023/12/20 01:43:30;;;;;;;;;0.00;0.00;;;;;10.92;100.00;102034.81;5060104;27;48305;-85
2023/12/20 01:45:58;;;;;;;;;0.00;0.00;;;;;10.91;100.00;102035.72;5080080;27;56198;-85
2023/12/20 01:48:25;;;;;;;;;0.00;0.00;;;;;10.84;100.00;102014.06;5080958;27;45344;-85
2023/12/20 01:50:53;;;;;;;;;0.00;0.00;;;;;10.87;100.00;102023.59;5080931;27;45476;-86
2023/12/20 01:53:20;;;;;;;;;0.00;0.00;;;;;10.89;100.00;102027.91;5075454;28;45451;-85
2023/12/20 01:55:47;;;;;;;;;0.00;0.00;;;;;10.96;100.00;102023.50;5060145;28;45401;-85
2023/12/20 01:58:14;;;;;;;;;0.00;0.00;;;;;11.02;100.00;102031.25;5042184;28;45292;-85
2023/12/20 02:00:40;;;;;;;;;0.00;0.00;;;;;11.06;100.00;102043.38;5060328;28;45600;-85
2023/12/20 02:03:06;;;;;;;;;0.00;0.00;;;;;11.12;100.00;102050.25;5078143;28;47031;-85
2023/12/20 02:05:33;;;;;;;;;0.00;0.00;;;;;11.13;100.00;102045.03;5060089;28;45512;-84
2023/12/20 02:08:06;;;;;;;;;0.00;0.00;;;;;11.17;100.00;102057.16;5059824;28;45331;-84
2023/12/20 02:10:34;;;;;;;;;0.00;0.00;;;;;11.21;100.00;102052.78;5059747;28;45468;-85
2023/12/20 02:12:59;;;;;;;;;0.00;0.00;;;;;11.28;100.00;102057.03;5078001;28;46122;-85
2023/12/20 02:15:28;;;;;;;;;0.00;0.00;;;;;11.28;100.00;102070.06;5060026;28;45368;-85
2023/12/20 02:17:53;;;;;;;;;0.00;0.00;;;;;11.28;100.00;102064.00;5060397;28;45323;-85
2023/12/20 02:20:21;;;;;;;;;0.00;0.00;;;;;11.31;100.00;102059.63;5042977;28;45464;-85
2023/12/20 02:22:49;;;;;;;;;0.00;0.00;;;;;11.31;100.00;102069.16;5043507;28;48144;-85
2023/12/20 02:25:15;;;;;;;;;0.00;0.00;;;;;11.26;100.00;102073.59;5077679;28;45313;-84
2023/12/20 02:27:43;;;;;;;;;0.00;0.00;;;;;11.27;100.00;102070.94;5042310;28;45441;-85
2023/12/20 02:30:10;;;;;;;;;0.00;0.00;;;;;11.25;100.00;102070.09;5059992;28;45377;-85
2023/12/20 02:32:35;;;;;;;;;0.00;0.00;;;;;11.18;100.00;102071.03;5059557;28;54017;-85
2023/12/20 02:35:00;;;;;;;;;0.00;0.00;;;;;11.12;100.00;102068.50;5042039;28;69902;-85
2023/12/20 02:37:26;;;;;;;;;0.00;0.00;;;;;11.06;100.00;102071.19;5059901;28;45267;-85
2023/12/20 02:39:51;;;;;;;;;0.00;0.00;;;;;11.00;100.00;102078.16;5077959;28;45425;-84
2023/12/20 02:42:16;;;;;;;;;0.00;0.00;;;;;10.90;100.00;102078.25;5038460;28;58288;-85
2023/12/20 02:44:42;;;;;;;;;0.00;0.00;;;;;10.91;100.00;102074.78;5039302;28;45294;-85
2023/12/20 02:47:07;;;;;;;;;0.00;0.00;;;;;10.89;100.00;102072.19;5039606;28;45371;-85
2023/12/20 02:49:33;;;;;;;;;0.00;0.00;;;;;10.81;100.00;102076.63;5039453;28;45241;-84
2023/12/20 02:51:58;;;;;;;;;0.00;0.00;;;;;10.79;100.00;102080.94;5057242;28;45499;-86
2023/12/20 02:54:23;;;;;;;;;0.00;0.00;;;;;10.73;100.00;102078.41;5039464;28;45413;-85
2023/12/20 02:56:49;;;;;;;;;0.00;0.00;;;;;10.70;100.00;102075.81;5038461;28;58350;-85
2023/12/20 02:59:14;;;;;;;;;0.00;0.00;;;;;10.61;100.00;102068.97;5039300;28;45545;-85
2023/12/20 03:01:44;;;;;;;;;0.00;0.00;;;;;10.69;100.00;102080.16;5039341;28;46239;-85
2023/12/20 03:04:10;;;;;;;;;0.00;0.00;;;;;10.61;100.00;102084.59;5022725;28;45920;-84
2023/12/20 03:06:36;;;;;;;;;0.00;0.00;;;;;10.53;100.00;102082.03;5057415;28;45316;-85
2023/12/20 03:09:01;;;;;;;;;0.00;0.00;;;;;10.50;100.00;102091.59;5039493;28;45377;-85
2023/12/20 03:11:27;;;;;;;;;0.00;0.00;;;;;10.45;100.00;102087.28;5029781;28;67470;-85
2023/12/20 03:13:53;;;;;;;;;0.00;0.00;;;;;10.46;100.00;102085.56;5077338;28;45435;-85
2023/12/20 03:16:18;;;;;;;;;0.00;0.00;;;;;10.41;100.00;102075.16;5041916;28;45388;-86
2023/12/20 03:18:44;;;;;;;;;0.00;0.00;;;;;10.43;100.00;102077.75;5059178;28;45421;-85
2023/12/20 03:21:12;;;;;;;;;0.00;0.00;;;;;10.40;100.00;102076.06;5058323;28;59916;-85
2023/12/20 03:23:37;;;;;;;;;0.00;0.00;;;;;10.37;100.00;102070.00;5041753;28;57834;-85
2023/12/20 03:26:03;;;;;;;;;0.00;0.00;;;;;10.32;100.00;102074.38;5057643;28;66853;-85
2023/12/20 03:28:31;;;;;;;;;0.00;0.00;;;;;10.34;100.00;102076.06;5042083;28;45685;-85
2023/12/20 03:30:57;;;;;;;;;0.00;0.00;;;;;10.31;100.00;102076.13;5058900;28;50426;-85
2023/12/20 03:33:25;;;;;;;;;0.00;0.00;;;;;10.36;100.00;102079.53;5058278;28;64384;-85
2023/12/20 03:35:50;;;;;;;;;0.00;0.00;;;;;10.30;100.00;102076.09;5058857;28;45472;-85
2023/12/20 03:38:16;;;;;;;;;0.00;0.00;;;;;10.28;100.00;102076.09;5041644;28;68706;-85
2023/12/20 03:40:41;;;;;;;;;0.00;0.00;;;;;10.24;100.00;102085.66;5041435;28;46935;-85
2023/12/20 03:43:06;;;;;;;;;0.00;0.00;;;;;10.23;100.00;102081.34;5058200;28;65355;-85
2023/12/20 03:45:32;;;;;;;;;0.00;0.00;;;;;10.23;100.00;102089.16;5076152;28;61171;-85
2023/12/20 03:47:57;;;;;;;;;0.00;0.00;;;;;10.21;100.00;102098.66;5074453;28;64874;-86
2023/12/20 03:50:22;;;;;;;;;0.00;0.00;;;;;10.14;100.00;102090.91;5040981;28;56369;-86
2023/12/20 03:52:48;;;;;;;;;0.00;0.00;;;;;10.15;100.00;102088.31;5058458;28;45428;-85
2023/12/20 03:55:13;;;;;;;;;0.00;0.00;;;;;10.12;100.00;102097.84;5058471;28;45422;-84
2023/12/20 03:57:39;;;;;;;;;0.00;0.00;;;;;10.10;100.00;102095.25;5058616;28;45540;-85
2023/12/20 04:00:05;;;;;;;;;0.00;0.00;;;;;10.17;100.00;102093.50;5076445;28;46018;-84
2023/12/20 04:02:30;;;;;;;;;0.00;0.00;;;;;10.11;100.00;102096.16;5058174;28;45357;-84
2023/12/20 04:04:56;;;;;;;;;0.00;0.00;;;;;10.14;100.00;102093.50;5057421;28;64648;-85
2023/12/20 04:07:21;;;;;;;;;0.00;0.00;;;;;10.07;100.00;102087.50;5041187;28;45560;-85
2023/12/20 04:09:48;;;;;;;;;0.00;0.00;;;;;10.06;100.00;102081.41;5057705;28;46260;-84
2023/12/20 04:12:13;;;;;;;;;0.00;0.00;;;;;10.03;100.00;102084.03;5058520;28;45315;-85
2023/12/20 04:14:38;;;;;;;;;0.00;0.00;;;;;10.04;100.00;102090.97;5040252;28;70050;-85
2023/12/20 04:17:03;;;;;;;;;0.00;0.00;;;;;10.04;100.00;102087.50;5075511;28;65590;-85
2023/12/20 04:19:29;;;;;;;;;0.00;0.00;;;;;10.00;100.00;102098.81;5057286;28;55138;-84
2023/12/20 04:21:56;;;;;;;;;0.00;0.00;;;;;9.99;100.00;102095.34;5041127;28;45374;-84
2023/12/20 04:24:22;;;;;;;;;0.00;0.00;;;;;9.95;100.00;102084.94;5075861;28;45364;-84
2023/12/20 04:26:47;;;;;;;;;0.00;0.00;;;;;9.94;100.00;102088.44;5058060;28;45563;-84
2023/12/20 04:29:13;;;;;;;;;0.00;0.00;;;;;9.85;100.00;102089.34;5059407;28;58489;-84
2023/12/20 04:31:38;;;;;;;;;4.00;0.00;;;;;9.80;100.00;102107.53;5078632;28;69339;-84
2023/12/20 04:34:03;;;;;;;;;0.00;0.00;;;;;9.85;100.00;102107.53;5079824;28;45332;-83
2023/12/20 04:36:29;;;;;;;;;0.00;0.00;;;;;9.81;100.00;102105.81;5043743;28;58777;-83
2023/12/20 04:38:55;;;;;;;;;0.00;0.00;;;;;9.83;100.00;102104.06;5044762;28;47455;-85
2023/12/20 04:41:20;;;;;;;;;0.00;0.00;;;;;9.80;100.00;102104.94;5044158;28;67381;-84
2023/12/20 04:43:45;;;;;;;;;0.00;0.00;;;;;9.79;100.00;102098.03;5082054;27;45449;-85
2023/12/20 04:46:11;;;;;;;;;0.00;0.00;;;;;9.78;100.00;102091.06;5077393;28;57968;-85
2023/12/20 04:48:36;;;;;;;;;0.00;0.00;;;;;9.76;100.00;102098.03;5079073;28;46817;-84
2023/12/20 04:51:02;;;;;;;;;0.00;0.00;;;;;9.73;100.00;102105.81;5060526;28;68556;-83
2023/12/20 04:53:27;;;;;;;;;0.00;0.00;;;;;9.70;100.00;102100.66;5061359;28;45380;-84
2023/12/20 04:55:53;;;;;;;;;0.00;0.00;;;;;9.72;100.00;102098.06;5079572;28;45357;-84
2023/12/20 04:58:18;;;;;;;;;0.00;0.00;;;;;9.71;100.00;102099.78;5079375;28;45403;-84
2023/12/20 05:00:44;;;;;;;;;0.00;0.00;;;;;9.68;100.00;102103.25;5079530;28;45485;-85
2023/12/20 05:03:09;;;;;;;;;0.00;0.00;;;;;9.64;100.00;102092.88;5079076;28;45509;-85
2023/12/20 05:05:35;;;;;;;;;0.00;0.00;;;;;9.65;100.00;102108.47;5060476;28;58632;-84
2023/12/20 05:08:01;;;;;;;;;0.00;0.00;;;;;9.64;100.00;102101.53;5079267;28;46368;-84
2023/12/20 05:10:26;;;;;;;;;0.00;0.00;;;;;9.65;100.00;102105.84;5061104;28;45376;-84
2023/12/20 05:12:52;;;;;;;;;0.00;0.00;;;;;9.68;100.00;102100.66;5061233;28;45337;-84
2023/12/20 05:15:17;;;;;;;;;3.00;3.00;;;;;9.75;100.00;102111.91;5043283;28;66675;-84
2023/12/20 05:17:43;;;;;;;;;0.00;0.00;;;;;9.77;100.00;102114.47;5078229;28;64573;-84
2023/12/20 05:20:08;;;;;;;;;0.00;0.00;;;;;9.72;100.00;102114.50;5026410;28;54011;-85
2023/12/20 05:22:34;;;;;;;;;0.00;0.00;;;;;9.71;100.00;102110.16;5061155;28;45457;-84
2023/12/20 05:24:59;;;;;;;;;0.00;0.00;;;;;9.68;100.00;102110.19;5043832;28;51264;-84
2023/12/20 05:27:24;;;;;;;;;0.00;0.00;;;;;9.63;100.00;102110.19;5042549;28;70117;-84
2023/12/20 05:29:52;;;;;;;;;0.00;0.00;;;;;9.61;100.00;102113.69;5078193;28;61585;-84
2023/12/20 05:32:17;;;;;;;;;0.00;0.00;;;;;9.63;100.00;102112.78;5060652;28;45402;-84
2023/12/20 05:34:43;;;;;;;;;0.00;0.00;;;;;9.63;100.00;102115.41;5060523;28;45301;-84
2023/12/20 05:37:08;;;;;;;;;0.00;0.00;;;;;9.55;100.00;102114.56;5060668;28;45475;-85
2023/12/20 05:39:33;;;;;;;;;0.00;0.00;;;;;9.56;100.00;102120.63;5078520;28;45217;-84
2023/12/20 05:42:02;;;;;;;;;0.00;0.00;;;;;9.58;100.00;102131.88;5078127;28;62243;-84
2023/12/20 05:44:27;;;;;;;;;0.00;0.00;;;;;9.54;100.00;102118.03;5060313;28;45630;-84
2023/12/20 05:46:53;;;;;;;;;0.00;0.00;;;;;9.56;100.00;102124.06;5059973;28;62218;-84
2023/12/20 05:49:18;;;;;;;;;0.00;0.00;;;;;9.53;100.00;102118.03;5042172;28;71219;-84
2023/12/20 05:51:43;;;;;;;;;0.00;0.00;;;;;9.53;100.00;102125.81;5060204;28;45358;-84
2023/12/20 05:54:09;;;;;;;;;0.00;0.00;;;;;9.51;100.00;102131.03;5077876;28;61888;-84
2023/12/20 05:56:34;;;;;;;;;0.00;0.00;;;;;9.51;100.00;102136.25;5059148;28;72477;-84
2023/12/20 05:58:59;;;;;;;;;0.00;0.00;;;;;9.50;100.00;102137.09;5059412;28;69368;-84
2023/12/20 06:01:25;;;;;;;;;0.00;0.00;;;;;9.44;100.00;102137.13;5077863;28;62685;-83
2023/12/20 06:03:50;;;;;;;;;0.00;0.00;;;;;9.42;100.00;102137.13;5078272;28;45451;-84
2023/12/20 06:06:18;;;;;;;;;0.00;0.00;;;;;9.45;100.00;102144.03;5042286;28;74499;-85
2023/12/20 06:08:44;;;;;;;;;0.00;0.00;;;;;9.43;100.00;102157.03;5059870;28;54275;-84
2023/12/20 06:11:09;;;;;;;;;0.00;0.00;;;;;9.43;100.00;102157.03;5078463;28;45359;-84
2023/12/20 06:13:35;;;;;;;;;0.00;0.00;;;;;9.40;100.00;102159.66;5060031;28;50456;-84
2023/12/20 06:16:05;;;;;;;;;0.00;0.00;;;;;9.42;100.00;102149.25;5078013;28;46506;-84
2023/12/20 06:18:31;;;;;;;;;0.00;0.00;;;;;9.39;100.00;102144.91;5077740;28;45553;-83
2023/12/20 06:20:56;;;;;;;;;0.00;0.00;;;;;9.42;100.00;102141.47;5059811;28;45262;-84
2023/12/20 06:23:21;;;;;;;;;0.00;0.00;;;;;9.41;100.00;102150.13;5077029;28;58901;-84
2023/12/20 06:25:47;;;;;;;;;0.00;0.00;;;;;9.36;100.00;102141.44;5077704;28;46607;-84
2023/12/20 06:28:14;;;;;;;;;0.00;0.00;;;;;9.37;100.00;102149.25;5059456;28;55048;-83
2023/12/20 06:30:39;;;;;;;;;0.00;0.00;;;;;9.32;100.00;102143.19;5078347;28;45601;-84
2023/12/20 06:33:06;;;;;;;;;0.00;0.00;;;;;9.37;100.00;102148.38;5041769;28;65467;-85
2023/12/20 06:35:31;;;;;;;;;0.00;0.00;;;;;9.37;100.00;102145.78;5059980;28;46290;-84
2023/12/20 06:37:59;;;;;;;;;0.00;0.00;;;;;9.30;100.00;102144.91;5076731;28;68653;-85
2023/12/20 06:40:24;;;;;;;;;0.00;0.00;;;;;9.29;100.00;102133.66;5078137;28;45393;-84
2023/12/20 06:42:50;;;;;;;;;0.00;0.00;;;;;9.24;100.00;102138.00;5078056;28;45598;-84
2023/12/20 06:45:15;;;;;;;;;0.00;0.00;;;;;9.24;100.00;102138.00;5059048;28;52864;-84
2023/12/20 06:47:41;;;;;;;;;2.25;2.25;;;;;9.18;100.00;102145.81;5059000;28;51495;-84
2023/12/20 06:50:08;;;;;;;;;0.00;0.00;;;;;9.19;100.00;102151.88;5042496;28;48826;-84
2023/12/20 06:52:33;;;;;;;;;0.00;0.00;;;;;9.13;100.00;102154.47;5076350;28;45301;-85
2023/12/20 06:54:58;;;;;;;;;0.00;0.00;;;;;9.19;100.00;102154.47;5059401;28;45685;-84
2023/12/20 06:57:25;;;;;;;;;0.00;0.00;;;;;9.17;100.00;102149.25;5058321;28;63187;-85
2023/12/20 06:59:52;;;;;;;;;0.00;0.00;;;;;9.16;100.00;102146.69;5059692;28;45443;-84
2023/12/20 07:02:17;;;;;;;;;4.00;4.00;;;;;9.11;100.00;102150.13;5058823;28;45338;-84
2023/12/20 07:04:42;;;;;;;;;0.00;0.00;;;;;9.13;100.00;102151.88;5077175;28;45417;-85
2023/12/20 07:07:08;;;;;;;;;0.00;0.00;;;;;9.09;100.00;102154.47;5041995;28;47114;-85
2023/12/20 07:09:33;;;;;;;;;0.00;0.00;;;;;9.12;100.00;102153.63;5077789;28;45368;-84
2023/12/20 07:11:59;;;;;;;;;0.00;0.00;;;;;9.14;100.00;102157.06;5058365;28;68867;-84
2023/12/20 07:14:24;;;;;;;;;0.00;0.00;;;;;9.11;100.00;102151.88;5076828;28;47037;-84
2023/12/20 07:16:50;;;;;;;;;0.00;0.00;;;;;9.11;100.00;102157.06;5057633;28;57693;-85
2023/12/20 07:19:15;;;;;;;;;0.00;0.00;;;;;9.10;100.00;102163.09;5041533;28;64919;-85
2023/12/20 07:21:40;;;;;;;;;0.00;0.00;;;;;9.09;100.00;102164.84;5076046;28;69269;-85
2023/12/20 07:24:06;;;;;;;;;0.00;0.00;;;;;9.11;100.00;102170.91;5041459;28;47234;-85
2023/12/20 07:26:33;;;;;;;;;0.00;0.00;;;;;9.08;100.00;102170.03;5059208;28;45430;-87
2023/12/20 07:29:16;;;;;;;;;0.00;0.00;;;;;9.05;100.00;102175.25;5059899;28;45315;-87
2023/12/20 07:31:54;;;;;;;;;0.00;0.00;;;;;8.99;100.00;102176.13;5061778;28;45488;-87
2023/12/20 07:34:45;;;;;;;;;0.00;0.00;;;;;9.03;100.00;102175.25;5057045;28;45619;-88
2023/12/20 07:37:14;;;;;;;;;0.00;0.00;;;;;8.95;100.00;102163.13;5056682;28;45905;-90
2023/12/20 07:39:48;;;;;;;;;0.00;0.00;;;;;8.93;100.00;102175.25;5059162;28;46676;-88
2023/12/20 07:42:14;;;;;;;;;0.00;0.00;;;;;8.90;100.00;102178.72;5059298;28;45329;-88
2023/12/20 07:44:39;;;;;;;;;0.00;0.00;;;;;8.84;100.00;102165.69;5061017;28;48181;-87
2023/12/20 07:47:05;;;;;;;;;0.00;0.00;;;;;8.89;100.00;102174.38;5058416;28;45424;-86
2023/12/20 07:49:33;;;;;;;;;0.00;0.00;;;;;8.92;100.00;102174.38;5059453;28;45496;-87
2023/12/20 07:51:58;;;;;;;;;0.00;0.00;;;;;8.87;100.00;102176.94;5076611;28;50185;-87
2023/12/20 07:54:30;;;;;;;;;0.00;0.00;;;;;8.86;100.00;102185.63;5060042;28;46019;-89
2023/12/20 07:56:55;;;;;;;;;0.00;0.00;;;;;8.84;100.00;102192.56;5059271;28;45498;-89
2023/12/20 07:59:20;;;;;;;;;0.00;0.00;;;;;8.85;100.00;102193.41;5076566;28;62070;-90
2023/12/20 08:01:58;;;;;;;;;0.00;0.00;;;;;8.86;100.00;102193.41;5042172;28;45725;-88
2023/12/20 08:04:27;;;;;;;;;0.00;0.00;;;;;8.82;100.00;102178.69;5059165;28;47144;-88
2023/12/20 08:10:04;;;;;;;;;0.00;0.00;;;;;8.99;100.00;102177.81;5054108;28;45460;-86
2023/12/20 08:12:34;;;;;;;;;0.00;0.00;;;;;8.99;100.00;102176.13;5045122;28;45359;-87
2023/12/20 08:14:59;;;;;;;;;0.00;0.00;;;;;8.97;100.00;102184.75;5056887;28;45515;-83
2023/12/20 08:17:25;;;;;;;;;0.00;0.00;;;;;9.06;100.00;102182.16;5026965;28;45715;-83
2023/12/20 08:19:51;;;;;;;;;0.00;0.00;;;;;9.08;100.00;102190.81;5055109;28;53395;-83
2023/12/20 08:22:16;;;;;;;;;6.00;6.00;;;;;9.08;100.00;102178.72;5047850;28;45546;-82
2023/12/20 08:24:42;;;;;;;;;0.00;0.00;;;;;9.13;100.00;102177.84;5059067;28;45316;-82
2023/12/20 08:27:07;;;;;;;;;0.00;0.00;;;;;9.10;100.00;102173.50;5046815;28;53337;-82
2023/12/20 08:29:33;;;;;;;;;0.00;0.00;;;;;9.17;100.00;102167.44;5073914;28;45480;-83
2023/12/20 08:31:59;;;;;;;;;0.00;0.00;;;;;9.21;100.00;102165.72;5050886;28;45458;-83
2023/12/20 08:34:24;;;;;;;;;0.00;0.00;;;;;9.15;100.00;102168.31;5054928;28;55558;-82
2023/12/20 08:36:53;;;;;;;;;0.00;0.00;;;;;9.22;100.00;102170.06;5048908;28;50220;-82
2023/12/20 08:39:18;;;;;;;;;0.00;0.00;;;;;9.24;100.00;102168.31;5057617;28;45273;-82
2023/12/20 08:41:44;;;;;;;;;0.00;0.00;;;;;9.29;100.00;102171.78;5068423;28;70168;-81
2023/12/20 08:44:09;;;;;;;;;0.00;0.00;;;;;9.33;100.00;102167.47;5073331;28;69040;-81
2023/12/20 08:46:35;;;;;;;;;0.00;0.00;;;;;9.37;100.00;102180.44;5050097;28;66567;-82
2023/12/20 08:49:01;;;;;;;;;0.00;0.00;;;;;9.41;100.00;102189.94;5056607;28;45392;-82
2023/12/20 08:51:26;;;;;;;;;1.00;1.00;;;;;9.42;100.00;102191.69;5067225;28;45675;-82
2023/12/20 08:53:51;;;;;;;;;0.00;0.00;;;;;9.46;100.00;102180.44;5071226;28;46761;-82
2023/12/20 08:56:17;;;;;;;;;0.00;0.00;;;;;9.48;100.00;102185.63;5070980;28;73688;-83
2023/12/20 08:58:44;;;;;;;;;0.00;0.00;;;;;9.57;100.00;102189.97;5053527;28;45408;-81
2023/12/20 09:01:09;;;;;;;;;0.00;0.00;;;;;9.63;100.00;102193.41;5073945;28;45643;-82
2023/12/20 09:03:35;;;;;;;;;0.00;0.00;;;;;9.69;100.00;102198.59;5073950;28;73100;-82
2023/12/20 09:06:00;;;;;;;;;0.00;0.00;;;;;9.83;100.00;102197.69;5069882;28;72205;-82
2023/12/20 09:08:26;;;;;;;;;0.00;0.00;;;;;9.97;100.00;102195.91;5058931;27;45353;-81
2023/12/20 09:10:51;;;;;;;;;1.00;1.00;;;;;10.17;100.00;102202.78;5071466;27;45415;-81
2023/12/20 09:13:17;;;;;;;;;0.00;0.00;;;;;10.32;100.00;102197.53;5052538;28;45881;-80
2023/12/20 09:15:42;;;;;;;;;0.00;0.00;;;;;10.44;100.00;102189.69;5076820;28;45541;-80
2023/12/20 09:18:08;;;;;;;;;0.00;0.00;;;;;10.52;100.00;102188.78;5059257;28;55823;-81
2023/12/20 09:20:33;;;;;;;;;0.00;0.00;;;;;10.59;100.00;102188.75;5076474;27;45603;-80
2023/12/20 09:22:59;;;;;;;;;0.00;0.00;;;;;10.68;100.00;102181.72;5061927;27;45620;-80
2023/12/20 09:25:25;;;;;;;;;0.00;0.00;;;;;10.73;100.00;102172.16;5046744;28;45851;-80
2023/12/20 09:27:52;;;;;;;;;0.00;0.00;;;;;10.81;100.00;102167.78;5051178;28;45526;-82
2023/12/20 09:30:18;;;;;;;;;0.75;0.75;;;;;10.95;100.00;102172.88;5067457;28;45544;-83
2023/12/20 09:32:43;;;;;;;;;0.00;0.00;;;;;11.03;100.00;102171.94;5076685;28;45450;-85
2023/12/20 09:35:09;;;;;;;;;0.00;0.00;;;;;11.09;100.00;102175.34;5050546;28;45387;-83
2023/12/20 09:37:37;;;;;;;;;0.00;0.00;;;;;11.22;100.00;102185.69;5065603;28;45676;-86
2023/12/20 09:40:04;;;;;;;;;0.00;0.00;;;;;11.36;100.00;102203.81;5063371;28;45425;-84
2023/12/20 09:42:49;;;;;;;;;0.00;0.00;;;;;11.53;100.00;102203.66;5064898;27;47148;-83
2023/12/20 09:45:19;;;;;;;;;0.00;0.00;;;;;11.61;100.00;102206.19;5050246;28;45459;-82
2023/12/20 09:47:45;;;;;;;;;0.00;0.00;;;;;11.69;100.00;102196.53;5075747;28;45383;-84
2023/12/20 09:50:10;;;;;;;;;0.00;0.00;;;;;11.74;100.00;102204.34;5059307;28;59504;-83
2023/12/20 09:52:36;;;;;;;;;0.00;0.00;;;;;11.78;100.00;102203.41;5041508;28;57410;-83
2023/12/20 09:55:05;;;;;;;;;0.00;0.00;;;;;11.91;100.00;102199.81;5057891;28;45412;-84
2023/12/20 09:57:31;;;;;;;;;0.00;0.00;;;;;12.06;100.00;102198.78;5052343;28;45366;-84
2023/12/20 09:59:56;;;;;;;;;0.00;0.00;;;;;12.17;100.00;102190.84;5078002;28;45320;-83
2023/12/20 10:02:26;;;;;;;;;0.00;0.00;;;;;12.17;100.00;102190.84;5066302;28;54224;-84
2023/12/20 10:04:51;;;;;;;;;0.00;0.00;;;;;12.10;100.00;102195.25;5065559;28;45392;-83
2023/12/20 10:07:17;;;;;;;;;0.00;0.00;;;;;12.09;100.00;102208.31;5057117;28;69399;-83
2023/12/20 10:09:42;;;;;;;;;0.00;0.00;;;;;12.09;100.00;102201.38;5077765;28;45215;-83
2023/12/20 10:12:08;;;;;;;;;0.00;0.00;;;;;12.19;100.00;102205.59;5050356;28;46324;-83
2023/12/20 10:14:33;;;;;;;;;0.00;0.00;;;;;12.31;100.00;102194.13;5046500;28;45275;-84
2023/12/20 10:17:03;;;;;;;;;0.00;0.00;;;;;12.54;100.00;102200.81;5046210;28;45318;-83
2023/12/20 10:19:28;;;;;;;;;0.00;0.00;;;;;12.62;100.00;102200.69;5058788;28;45587;-83
2023/12/20 10:21:54;;;;;;;;;0.00;0.00;;;;;12.65;100.00;102191.06;5074306;28;75406;-83
2023/12/20 10:24:19;;;;;;;;;0.00;0.00;;;;;12.72;100.00;102184.88;5047909;28;60600;-83
2023/12/20 10:26:45;;;;;;;;;0.00;0.00;;;;;12.67;100.00;102194.50;5057200;28;45431;-83
2023/12/20 10:29:10;;;;;;;;;0.00;0.00;;;;;12.64;100.00;102178.88;5058268;28;68342;-82
2023/12/20 10:31:36;;;;;;;;;0.00;0.00;;;;;12.67;100.00;102173.63;5038598;28;66116;-82
2023/12/20 10:34:02;;;;;;;;;0.00;0.00;;;;;12.74;100.00;102175.25;5057592;28;45519;-82
2023/12/20 10:36:30;;;;;;;;;0.00;0.00;;;;;12.82;100.00;102184.72;5059078;28;45388;-82
2023/12/20 10:38:57;;;;;;;;;0.00;0.00;;;;;12.68;100.00;102175.31;5076136;28;45475;-83
2023/12/20 10:41:30;;;;;;;;;0.00;0.00;;;;;12.88;100.00;102193.31;5071320;28;45741;-82
2023/12/20 10:43:59;;;;;;;;;0.00;0.00;;;;;12.90;100.00;102175.84;5050446;28;45566;-84
2023/12/20 10:46:26;;;;;;;;;0.00;0.00;;;;;13.09;100.00;102170.34;5056954;28;45451;-82
2023/12/20 10:48:53;;;;;;;;;0.00;0.00;;;;;13.08;100.00;102172.09;5075595;28;45538;-82
2023/12/20 10:51:20;;;;;;;;;0.00;0.00;;;;;13.24;100.00;102163.97;5076130;28;45419;-82
2023/12/20 10:53:48;;;;;;;;;0.00;0.00;;;;;13.50;100.00;102153.97;5068042;28;45540;-81
2023/12/20 10:56:17;;;;;;;;;0.00;0.00;;;;;13.72;100.00;102161.41;5053442;28;45712;-83
2023/12/20 10:58:43;;;;;;;;;0.00;0.00;;;;;15.28;100.00;102149.19;5065588;28;45639;-81
2023/12/20 11:01:09;;;;;;;;;0.00;0.00;;;;;16.70;100.00;102141.59;5074310;28;46278;-82
2023/12/20 11:03:36;;;;;;;;;0.00;0.00;;;;;17.87;100.00;102141.09;5044098;28;45404;-82
2023/12/20 11:06:08;;;;;;;;;0.00;0.00;;;;;19.08;100.00;102126.66;5057081;28;45585;-82
2023/12/20 11:08:57;;;;;;;;;0.00;0.00;;;;;20.56;100.00;102133.16;5057879;28;45444;-82
2023/12/20 11:11:51;;;;;;;;;0.00;0.00;;;;;21.89;100.00;102135.19;5037972;28;46347;-82
2023/12/20 11:14:23;;;;;;;;;0.75;0.00;;;;;22.61;99.14;102123.22;5056510;28;45791;-81
2023/12/20 11:16:49;;;;;;;;;0.00;0.00;;;;;22.51;95.19;102132.63;5057566;28;45321;-82
2023/12/20 11:19:14;;;;;;;;;0.00;0.00;;;;;22.57;91.51;102130.50;5076046;28;45469;-84
2023/12/20 11:21:40;;;;;;;;;0.00;0.00;;;;;22.96;95.13;102125.59;5049390;28;45514;-81